createdAt,value
2019-01-29T04:01:02.066Z,99.43
2019-01-29T04:02:02.231Z,99.81
2019-01-29T04:03:02.338Z,99.15
2019-01-29T04:04:02.480Z,99.33
2019-01-29T04:05:02.637Z,99.33
2019-01-29T04:06:02.784Z,99.71
2019-01-29T04:07:02.961Z,99.71
2019-01-29T04:08:03.169Z,99.99
2019-01-29T04:09:03.268Z,99.99
2019-01-29T04:10:03.511Z,99.62
2019-01-29T04:11:03.593Z,99.99
2019-01-29T04:12:03.786Z,99.71
2019-01-29T04:13:03.938Z,99.05
2019-01-29T04:14:04.106Z,99.81
2019-01-29T04:15:04.270Z,99.99
2019-01-29T04:16:04.419Z,99.99
2019-01-29T04:17:04.548Z,99.81
2019-01-29T04:18:04.812Z,99.99
2019-01-29T04:19:04.901Z,99.99
2019-01-29T04:20:05.081Z,99.99
2019-01-29T04:21:05.243Z,99.99
2019-01-29T04:22:05.363Z,99.99
2019-01-29T04:23:05.595Z,99.99
2019-01-29T04:24:05.710Z,99.99
2019-01-29T04:25:05.844Z,99.99
2019-01-29T04:26:06.058Z,99.99
2019-01-29T04:27:06.209Z,99.99
2019-01-29T04:28:06.404Z,99.99
2019-01-29T04:29:06.513Z,99.99
2019-01-29T04:30:06.699Z,99.99
2019-01-29T04:31:06.827Z,99.99
2019-01-29T04:32:07.033Z,99.99
2019-01-29T04:33:07.183Z,99.99
2019-01-29T04:34:07.302Z,99.99
2019-01-29T04:35:07.506Z,99.99
2019-01-29T04:36:07.704Z,99.99
2019-01-29T04:37:07.848Z,99.99
2019-01-29T04:38:07.973Z,99.99
2019-01-29T04:39:08.186Z,99.99
2019-01-29T04:40:08.251Z,99.99
2019-01-29T04:41:08.462Z,99.99
2019-01-29T04:42:08.633Z,99.99
2019-01-29T04:43:08.768Z,99.99
2019-01-29T04:44:08.973Z,99.99
2019-01-29T04:45:09.046Z,99.99
2019-01-29T04:46:09.216Z,99.99
2019-01-29T04:47:09.346Z,99.99
2019-01-29T04:48:09.596Z,99.99
2019-01-29T04:49:09.656Z,99.99
2019-01-29T04:50:09.883Z,99.90
2019-01-29T04:51:10.000Z,99.99
2019-01-29T04:52:10.175Z,99.99
2019-01-29T04:53:10.319Z,99.99
2019-01-29T04:54:10.476Z,99.99
2019-01-29T04:55:10.648Z,99.99
2019-01-29T04:56:10.804Z,99.99
2019-01-29T04:57:10.960Z,99.99
2019-01-29T04:58:11.115Z,99.99
2019-01-29T04:59:11.322Z,99.99
2019-01-29T05:00:12.447Z,99.99
2019-01-29T05:01:11.641Z,99.99
2019-01-29T05:02:11.856Z,99.99
2019-01-29T05:03:12.012Z,99.99
2019-01-29T05:04:12.187Z,99.99
2019-01-29T05:05:12.298Z,99.99
2019-01-29T05:06:12.449Z,99.99
2019-01-29T05:07:12.543Z,99.99
2019-01-29T05:08:12.711Z,99.99
2019-01-29T05:09:12.876Z,99.99
2019-01-29T05:10:13.077Z,99.99
2019-01-29T05:11:13.181Z,99.99
2019-01-29T05:12:13.389Z,99.99
2019-01-29T05:13:13.536Z,99.99
2019-01-29T05:14:13.630Z,99.99
2019-01-29T05:15:13.843Z,99.99
2019-01-29T05:16:13.975Z,99.99
2019-01-29T05:17:14.150Z,99.99
2019-01-29T05:18:14.296Z,99.99
2019-01-29T05:19:14.458Z,99.99
2019-01-29T05:20:14.582Z,99.99
2019-01-29T05:21:14.806Z,99.99
2019-01-29T05:22:14.997Z,99.99
2019-01-29T05:23:15.139Z,99.99
2019-01-29T05:24:15.235Z,99.99
2019-01-29T05:25:15.420Z,99.99
2019-01-29T05:26:15.554Z,99.99
2019-01-29T05:27:15.752Z,99.99
2019-01-29T05:28:15.956Z,99.99
2019-01-29T05:29:16.034Z,99.99
2019-01-29T05:30:16.240Z,99.99
2019-01-29T05:31:16.383Z,99.99
2019-01-29T05:32:16.571Z,99.99
2019-01-29T05:33:16.671Z,99.99
2019-01-29T05:34:16.884Z,99.99
2019-01-29T05:35:17.018Z,99.99
2019-01-29T05:36:17.136Z,99.99
2019-01-29T05:37:17.312Z,99.99
2019-01-29T05:38:17.454Z,99.99
2019-01-29T05:39:17.648Z,99.99
2019-01-29T05:40:17.756Z,99.99
2019-01-29T05:41:17.978Z,99.99
2019-01-29T05:42:18.160Z,99.99
2019-01-29T05:43:18.269Z,99.99
2019-01-29T05:44:18.412Z,99.99
2019-01-29T05:45:18.589Z,99.99
2019-01-29T05:46:18.724Z,99.99
2019-01-29T05:47:18.884Z,99.99
2019-01-29T05:48:19.053Z,99.99
2019-01-29T05:49:19.201Z,99.99
2019-01-29T05:50:19.375Z,99.99
2019-01-29T05:51:19.506Z,99.99
2019-01-29T05:52:19.694Z,99.99
2019-01-29T05:53:19.837Z,99.99
2019-01-29T05:54:19.993Z,99.99
2019-01-29T05:55:20.169Z,99.99
2019-01-29T05:56:20.266Z,99.99
2019-01-29T05:57:20.446Z,99.99
2019-01-29T05:58:21.408Z,99.99
2019-01-29T05:59:20.773Z,99.99
2019-01-29T06:00:20.955Z,99.99
2019-01-29T06:01:21.074Z,99.99
2019-01-29T06:02:21.220Z,99.99
2019-01-29T06:03:21.402Z,99.99
2019-01-29T06:04:21.527Z,99.99
2019-01-29T06:05:21.729Z,99.99
2019-01-29T06:06:21.893Z,99.99
2019-01-29T06:07:21.958Z,99.99
2019-01-29T06:08:22.169Z,99.99
2019-01-29T06:09:22.293Z,99.99
2019-01-29T06:10:22.544Z,99.99
2019-01-29T06:11:22.640Z,99.99
2019-01-29T06:12:22.791Z,99.99
2019-01-29T06:13:23.004Z,99.99
2019-01-29T06:14:23.113Z,99.99
2019-01-29T06:15:23.247Z,99.99
2019-01-29T06:16:23.404Z,99.99
2019-01-29T06:17:27.462Z,99.99
2019-01-29T06:18:23.745Z,99.99
2019-01-29T06:19:23.903Z,99.99
2019-01-29T06:20:24.028Z,99.99
2019-01-29T06:21:24.213Z,99.99
2019-01-29T06:22:24.401Z,99.99
2019-01-29T06:23:24.486Z,99.99
2019-01-29T06:24:25.764Z,99.99
2019-01-29T06:25:24.881Z,99.99
2019-01-29T06:26:25.048Z,99.99
2019-01-29T06:27:25.233Z,99.99
2019-01-29T06:28:25.327Z,99.99
2019-01-29T06:29:25.482Z,99.99
2019-01-29T06:30:25.651Z,99.99
2019-01-29T06:31:25.804Z,99.99
2019-01-29T06:32:26.003Z,99.99
2019-01-29T06:33:26.123Z,99.99
2019-01-29T06:34:26.264Z,99.99
2019-01-29T06:35:26.445Z,99.99
2019-01-29T06:36:26.642Z,99.99
2019-01-29T06:37:26.759Z,99.99
2019-01-29T06:38:26.879Z,99.99
2019-01-29T06:39:27.103Z,99.99
2019-01-29T06:40:27.340Z,99.99
2019-01-29T06:41:27.387Z,99.99
2019-01-29T06:42:27.542Z,99.99
2019-01-29T06:43:27.688Z,99.99
2019-01-29T06:44:27.898Z,99.99
2019-01-29T06:45:28.047Z,99.99
2019-01-29T06:46:28.257Z,99.99
2019-01-29T06:47:28.352Z,99.99
2019-01-29T06:48:28.543Z,99.99
2019-01-29T06:49:28.768Z,99.99
2019-01-29T06:50:28.872Z,99.99
2019-01-29T06:51:29.076Z,99.99
2019-01-29T06:52:29.159Z,99.99
2019-01-29T06:53:29.383Z,99.99
2019-01-29T06:54:34.141Z,99.99
2019-01-29T06:55:29.638Z,99.99
2019-01-29T06:56:29.969Z,99.99
2019-01-29T06:57:29.937Z,99.99
2019-01-29T06:58:30.085Z,99.99
2019-01-29T06:59:30.348Z,99.99
2019-01-29T07:00:30.440Z,99.99
2019-01-29T07:01:30.627Z,99.99
2019-01-29T07:02:30.732Z,99.99
2019-01-29T07:03:30.962Z,99.99
2019-01-29T07:04:31.063Z,99.99
2019-01-29T07:05:31.261Z,99.99
2019-01-29T07:06:31.431Z,99.99
2019-01-29T07:07:31.552Z,99.99
2019-01-29T07:08:31.681Z,99.99
2019-01-29T07:09:31.854Z,99.99
2019-01-29T07:10:32.004Z,99.99
2019-01-29T07:11:32.132Z,99.99
2019-01-29T07:12:32.331Z,99.99
2019-01-29T07:13:32.501Z,99.99
2019-01-29T07:14:32.676Z,99.99
2019-01-29T07:15:32.827Z,99.99
2019-01-29T07:16:32.993Z,99.99
2019-01-29T07:17:33.157Z,99.99
2019-01-29T07:18:33.312Z,99.99
2019-01-29T07:19:33.508Z,99.99
2019-01-29T07:20:33.689Z,99.99
2019-01-29T07:21:33.861Z,99.99
2019-01-29T07:22:34.003Z,99.99
2019-01-29T07:23:34.172Z,99.99
2019-01-29T07:24:42.464Z,99.99
2019-01-29T07:25:34.489Z,99.99
2019-01-29T07:26:34.653Z,99.99
2019-01-29T07:27:34.886Z,99.99
2019-01-29T07:28:35.004Z,99.99
2019-01-29T07:29:35.094Z,99.99
2019-01-29T07:30:35.313Z,99.99
2019-01-29T07:31:35.487Z,99.99
2019-01-29T07:32:35.638Z,99.99
2019-01-29T07:33:35.802Z,99.99
2019-01-29T07:34:35.941Z,99.99
2019-01-29T07:35:36.102Z,99.99
2019-01-29T07:36:36.219Z,99.99
2019-01-29T07:37:36.416Z,99.99
2019-01-29T07:38:36.635Z,99.99
2019-01-29T07:39:36.713Z,99.99
2019-01-29T07:40:36.958Z,99.99
2019-01-29T07:41:37.008Z,99.99
2019-01-29T07:42:37.168Z,99.99
2019-01-29T07:43:37.332Z,99.99
2019-01-29T07:44:37.498Z,99.99
2019-01-29T07:45:37.656Z,99.99
2019-01-29T07:46:37.789Z,99.99
2019-01-29T07:47:38.027Z,99.99
2019-01-29T07:48:38.102Z,99.99
2019-01-29T07:49:38.322Z,99.99
2019-01-29T07:50:38.463Z,99.99
2019-01-29T07:51:38.614Z,99.99
2019-01-29T07:52:38.784Z,99.99
2019-01-29T07:53:38.942Z,99.99
2019-01-29T07:54:39.125Z,99.99
2019-01-29T07:55:39.251Z,99.99
2019-01-29T07:56:39.390Z,99.99
2019-01-29T07:57:39.599Z,99.99
2019-01-29T07:58:39.725Z,99.99
2019-01-29T07:59:39.926Z,99.99
2019-01-29T08:00:42.145Z,99.99
2019-01-29T08:01:40.338Z,99.99
2019-01-29T08:02:40.417Z,99.99
2019-01-29T08:03:40.542Z,99.99
2019-01-29T08:04:40.760Z,99.99
2019-01-29T08:05:40.903Z,99.99
2019-01-29T08:06:41.070Z,99.99
2019-01-29T08:07:41.241Z,99.81
2019-01-29T08:08:41.336Z,99.81
2019-01-29T08:09:41.532Z,99.24
2019-01-29T08:10:41.668Z,99.99
2019-01-29T08:11:41.822Z,99.71
2019-01-29T08:12:42.036Z,99.05
2019-01-29T08:13:42.183Z,99.43
2019-01-29T08:14:42.374Z,99.43
2019-01-29T08:15:42.521Z,99.24
2019-01-29T08:16:42.669Z,99.24
2019-01-29T08:17:42.774Z,98.77
2019-01-29T08:18:42.935Z,98.77
2019-01-29T08:19:43.097Z,99.33
2019-01-29T08:20:43.209Z,99.24
2019-01-29T08:21:43.424Z,99.52
2019-01-29T08:22:43.589Z,99.52
2019-01-29T08:23:43.734Z,99.15
2019-01-29T08:24:51.472Z,98.58
2019-01-29T08:25:47.908Z,99.43
2019-01-29T08:26:44.304Z,99.15
2019-01-29T08:27:44.409Z,99.43
2019-01-29T08:28:44.574Z,98.77
2019-01-29T08:29:44.779Z,98.96
2019-01-29T08:30:44.905Z,98.77
2019-01-29T08:31:45.112Z,98.86
2019-01-29T08:32:45.184Z,99.15
2019-01-29T08:33:45.334Z,98.86
2019-01-29T08:34:45.542Z,99.24
2019-01-29T08:35:45.697Z,98.54
2019-01-29T08:36:45.882Z,98.54
2019-01-29T08:37:46.013Z,97.97
2019-01-29T08:38:46.194Z,97.64
2019-01-29T08:39:46.316Z,96.97
2019-01-29T08:40:46.528Z,96.12
2019-01-29T08:41:46.642Z,94.79
2019-01-29T08:42:46.730Z,94.42
2019-01-29T08:43:46.895Z,94.42
2019-01-29T08:44:47.083Z,94.70
2019-01-29T08:45:47.277Z,95.07
2019-01-29T08:46:47.396Z,94.65
2019-01-29T08:47:47.545Z,93.61
2019-01-29T08:48:47.711Z,92.71
2019-01-29T08:49:47.922Z,91.75
2019-01-29T08:50:48.106Z,91.33
2019-01-29T08:51:48.270Z,91.71
2019-01-29T08:52:48.436Z,92.14
2019-01-29T08:53:48.541Z,92.33
2019-01-29T08:54:48.715Z,92.33
2019-01-29T08:55:48.920Z,93.18
2019-01-29T08:56:49.087Z,93.27
2019-01-29T08:57:49.234Z,93.56
2019-01-29T08:58:49.394Z,94.04
2019-01-29T08:59:49.563Z,93.94
2019-01-29T09:00:49.716Z,94.56
2019-01-29T09:01:49.846Z,94.56
2019-01-29T09:02:50.069Z,95.22
2019-01-29T09:03:50.170Z,95.22
2019-01-29T09:04:50.309Z,95.50
2019-01-29T09:05:50.511Z,95.41
2019-01-29T09:06:50.676Z,96.07
2019-01-29T09:07:50.855Z,95.60
2019-01-29T09:08:51.026Z,95.88
2019-01-29T09:09:51.190Z,95.50
2019-01-29T09:10:51.321Z,95.69
2019-01-29T09:11:51.466Z,96.26
2019-01-29T09:12:51.631Z,95.79
2019-01-29T09:13:51.763Z,95.79
2019-01-29T09:14:51.991Z,96.26
2019-01-29T09:15:52.127Z,96.07
2019-01-29T09:16:52.243Z,95.41
2019-01-29T09:17:52.431Z,95.88
2019-01-29T09:18:52.535Z,95.88
2019-01-29T09:19:52.801Z,95.41
2019-01-29T09:20:52.924Z,95.22
2019-01-29T09:21:53.060Z,95.60
2019-01-29T09:22:53.170Z,96.26
2019-01-29T09:23:53.354Z,95.98
2019-01-29T09:24:53.604Z,95.98
2019-01-29T09:25:53.693Z,95.50
2019-01-29T09:26:53.848Z,95.12
2019-01-29T09:27:54.056Z,95.50
2019-01-29T09:28:54.176Z,95.88
2019-01-29T09:29:54.317Z,95.41
2019-01-29T09:30:54.463Z,95.31
2019-01-29T09:31:54.658Z,94.93
2019-01-29T09:32:54.775Z,94.84
2019-01-29T09:33:54.980Z,94.65
2019-01-29T09:34:55.113Z,94.93
2019-01-29T09:35:55.293Z,94.74
2019-01-29T09:36:55.410Z,95.88
2019-01-29T09:37:55.566Z,95.41
2019-01-29T09:38:55.717Z,95.88
2019-01-29T09:39:55.892Z,95.03
2019-01-29T09:40:56.066Z,94.93
2019-01-29T09:41:56.246Z,95.41
2019-01-29T09:42:56.389Z,95.41
2019-01-29T09:43:56.567Z,95.60
2019-01-29T09:44:56.753Z,95.41
2019-01-29T09:45:56.908Z,95.69
2019-01-29T09:46:57.020Z,94.93
2019-01-29T09:47:57.229Z,95.41
2019-01-29T09:48:57.348Z,95.17
2019-01-29T09:49:57.544Z,94.89
2019-01-29T09:50:57.657Z,94.42
2019-01-29T09:51:57.868Z,94.51
2019-01-29T09:52:58.074Z,94.70
2019-01-29T09:53:58.180Z,94.79
2019-01-29T09:54:58.381Z,94.18
2019-01-29T09:55:58.501Z,94.74
2019-01-29T09:56:58.661Z,94.46
2019-01-29T09:57:58.835Z,94.51
2019-01-29T09:58:59.019Z,94.32
2019-01-29T09:59:59.226Z,94.13
2019-01-29T10:00:59.292Z,94.32
2019-01-29T10:01:59.482Z,94.23
2019-01-29T10:02:59.629Z,93.94
2019-01-29T10:03:59.715Z,93.94
2019-01-29T10:04:59.875Z,93.42
2019-01-29T10:06:00.108Z,93.46
2019-01-29T10:07:00.230Z,93.75
2019-01-29T10:08:00.348Z,94.04
2019-01-29T10:09:00.531Z,94.79
2019-01-29T10:10:00.724Z,94.42
2019-01-29T10:11:00.861Z,94.04
2019-01-29T10:12:01.073Z,93.75
2019-01-29T10:13:01.126Z,93.46
2019-01-29T10:14:01.376Z,93.18
2019-01-29T10:15:01.492Z,93.37
2019-01-29T10:16:01.650Z,93.08
2019-01-29T10:17:01.800Z,93.37
2019-01-29T10:18:02.014Z,93.37
2019-01-29T10:19:02.132Z,92.28
2019-01-29T10:20:03.166Z,91.80
2019-01-29T10:21:02.410Z,90.67
2019-01-29T10:22:02.618Z,91.05
2019-01-29T10:23:02.846Z,90.52
2019-01-29T10:24:02.955Z,90.33
2019-01-29T10:25:03.059Z,89.10
2019-01-29T10:26:03.283Z,87.77
2019-01-29T10:27:03.487Z,86.68
2019-01-29T10:28:03.578Z,85.01
2019-01-29T10:29:03.743Z,83.49
2019-01-29T10:30:03.883Z,82.64
2019-01-29T10:31:04.070Z,81.02
2019-01-29T10:32:04.258Z,81.12
2019-01-29T10:33:04.400Z,81.30
2019-01-29T10:34:04.598Z,80.74
2019-01-29T10:35:04.749Z,80.45
2019-01-29T10:36:04.932Z,80.07
2019-01-29T10:37:05.030Z,79.50
2019-01-29T10:38:05.205Z,79.60
2019-01-29T10:39:05.358Z,80.60
2019-01-29T10:40:05.612Z,81.45
2019-01-29T10:41:05.768Z,82.40
2019-01-29T10:42:06.055Z,82.97
2019-01-29T10:43:06.070Z,84.40
2019-01-29T10:44:06.268Z,84.49
2019-01-29T10:45:06.379Z,83.54
2019-01-29T10:46:06.539Z,82.50
2019-01-29T10:47:06.653Z,81.84
2019-01-29T10:48:06.873Z,82.97
2019-01-29T10:49:07.024Z,82.21
2019-01-29T10:50:07.163Z,81.60
2019-01-29T10:51:07.364Z,83.54
2019-01-29T10:52:07.535Z,83.26
2019-01-29T10:53:07.665Z,81.36
2019-01-29T10:54:07.794Z,81.17
2019-01-29T10:55:07.967Z,82.03
2019-01-29T10:56:08.195Z,81.70
2019-01-29T10:57:10.174Z,81.74
2019-01-29T10:58:08.455Z,83.45
2019-01-29T10:59:08.615Z,83.69
2019-01-29T11:00:08.774Z,82.93
2019-01-29T11:01:08.964Z,82.78
2019-01-29T11:02:09.091Z,83.64
2019-01-29T11:03:09.269Z,82.55
2019-01-29T11:04:09.395Z,83.88
2019-01-29T11:05:09.575Z,84.55
2019-01-29T11:06:09.721Z,84.74
2019-01-29T11:07:09.880Z,85.97
2019-01-29T11:08:10.062Z,86.63
2019-01-29T11:09:10.290Z,85.49
2019-01-29T11:10:10.453Z,84.17
2019-01-29T11:11:10.563Z,84.64
2019-01-29T11:12:10.705Z,84.07
2019-01-29T11:13:10.837Z,82.55
2019-01-29T11:14:11.030Z,83.40
2019-01-29T11:15:11.301Z,84.17
2019-01-29T11:16:11.315Z,84.64
2019-01-29T11:17:11.511Z,85.49
2019-01-29T11:18:11.696Z,86.78
2019-01-29T11:19:11.849Z,84.59
2019-01-29T11:20:12.040Z,85.17
2019-01-29T11:21:12.160Z,85.26
2019-01-29T11:22:12.336Z,86.11
2019-01-29T11:23:12.462Z,85.74
2019-01-29T11:24:12.619Z,85.36
2019-01-29T11:25:12.836Z,85.55
2019-01-29T11:26:12.981Z,85.17
2019-01-29T11:27:13.117Z,85.55
2019-01-29T11:28:13.288Z,85.17
2019-01-29T11:29:13.449Z,86.78
2019-01-29T11:30:13.612Z,85.45
2019-01-29T11:31:13.697Z,86.16
2019-01-29T11:32:13.918Z,83.97
2019-01-29T11:33:14.047Z,84.36
2019-01-29T11:34:14.801Z,83.36
2019-01-29T11:35:14.370Z,82.50
2019-01-29T11:36:14.636Z,81.07
2019-01-29T11:37:14.736Z,81.36
2019-01-29T11:38:14.891Z,84.49
2019-01-29T11:39:15.053Z,82.03
2019-01-29T11:40:15.211Z,80.88
2019-01-29T11:41:15.382Z,80.41
2019-01-29T11:42:15.483Z,80.13
2019-01-29T11:43:15.708Z,81.93
2019-01-29T11:44:15.944Z,83.16
2019-01-29T11:45:16.034Z,81.17
2019-01-29T11:46:16.140Z,81.98
2019-01-29T11:47:16.406Z,81.70
2019-01-29T11:48:16.563Z,80.27
2019-01-29T11:49:16.703Z,80.94
2019-01-29T11:50:16.803Z,83.03
2019-01-29T11:51:17.037Z,82.93
2019-01-29T11:52:17.156Z,84.17
2019-01-29T11:53:17.307Z,84.36
2019-01-29T11:54:17.411Z,84.36
2019-01-29T11:55:17.652Z,84.49
2019-01-29T11:56:17.750Z,85.25
2019-01-29T11:57:17.935Z,85.20
2019-01-29T11:58:18.118Z,82.73
2019-01-29T11:59:18.275Z,82.01
2019-01-29T12:00:18.478Z,82.53
2019-01-29T12:01:18.560Z,79.30
2019-01-29T12:02:18.735Z,79.39
2019-01-29T12:03:18.967Z,78.67
2019-01-29T12:04:19.118Z,75.15
2019-01-29T12:05:19.269Z,75.78
2019-01-29T12:06:19.435Z,77.01
2019-01-29T12:07:19.659Z,77.26
2019-01-29T12:08:19.811Z,79.12
2019-01-29T12:09:19.959Z,79.16
2019-01-29T12:10:20.086Z,80.83
2019-01-29T12:11:20.299Z,81.49
2019-01-29T12:12:20.449Z,80.83
2019-01-29T12:13:20.608Z,80.30
2019-01-29T12:14:20.786Z,79.79
2019-01-29T12:15:20.872Z,80.16
2019-01-29T12:16:21.042Z,80.07
2019-01-29T12:17:21.237Z,80.22
2019-01-29T12:18:21.364Z,82.03
2019-01-29T12:19:21.520Z,83.83
2019-01-29T12:20:21.764Z,84.49
2019-01-29T12:21:21.865Z,85.53
2019-01-29T12:22:22.044Z,86.68
2019-01-29T12:23:22.230Z,87.15
2019-01-29T12:24:22.345Z,87.62
2019-01-29T12:25:22.531Z,84.68
2019-01-29T12:26:22.696Z,83.16
2019-01-29T12:27:22.846Z,82.40
2019-01-29T12:28:23.000Z,82.31
2019-01-29T12:29:23.136Z,84.01
2019-01-29T12:30:23.377Z,83.49
2019-01-29T12:31:23.504Z,83.78
2019-01-29T12:32:23.618Z,82.35
2019-01-29T12:33:23.818Z,80.79
2019-01-29T12:34:24.022Z,81.26
2019-01-29T12:35:24.142Z,81.32
2019-01-29T12:36:24.271Z,82.46
2019-01-29T12:37:24.474Z,83.40
2019-01-29T12:38:24.596Z,84.55
2019-01-29T12:39:24.817Z,85.21
2019-01-29T12:40:25.039Z,86.82
2019-01-29T12:41:25.184Z,87.01
2019-01-29T12:42:25.297Z,86.11
2019-01-29T12:43:25.518Z,85.55
2019-01-29T12:44:25.681Z,86.59
2019-01-29T12:45:25.799Z,87.06
2019-01-29T12:46:26.002Z,87.73
2019-01-29T12:47:26.159Z,87.06
2019-01-29T12:48:26.407Z,88.10
2019-01-29T12:49:26.514Z,88.35
2019-01-29T12:50:26.755Z,88.25
2019-01-29T12:51:26.843Z,89.11
2019-01-29T12:52:27.040Z,89.86
2019-01-29T12:53:27.150Z,91.09
2019-01-29T12:54:27.365Z,91.00
2019-01-29T12:55:27.534Z,90.53
2019-01-29T12:56:27.664Z,90.43
2019-01-29T12:57:27.799Z,90.53
2019-01-29T12:58:28.034Z,91.09
2019-01-29T12:59:28.123Z,91.38
2019-01-29T13:00:28.300Z,92.23
2019-01-29T13:01:28.437Z,92.33
2019-01-29T13:02:28.645Z,92.71
2019-01-29T13:03:28.827Z,92.71
2019-01-29T13:04:28.966Z,92.99
2019-01-29T13:05:29.115Z,93.18
2019-01-29T13:06:29.302Z,93.42
2019-01-29T13:07:29.430Z,93.42
2019-01-29T13:08:29.662Z,93.51
2019-01-29T13:09:29.751Z,93.99
2019-01-29T13:10:29.954Z,94.27
2019-01-29T13:11:30.150Z,94.18
2019-01-29T13:12:30.224Z,94.13
2019-01-29T13:13:30.455Z,93.75
2019-01-29T13:14:31.469Z,93.94
2019-01-29T13:15:30.701Z,93.94
2019-01-29T13:16:30.873Z,93.84
2019-01-29T13:17:31.060Z,94.13
2019-01-29T13:18:31.198Z,93.84
2019-01-29T13:19:31.347Z,94.32
2019-01-29T13:20:31.538Z,94.13
2019-01-29T13:21:31.667Z,93.46
2019-01-29T13:22:31.778Z,93.75
2019-01-29T13:23:32.034Z,93.37
2019-01-29T13:24:32.151Z,93.84
2019-01-29T13:25:32.305Z,93.94
2019-01-29T13:26:32.484Z,93.37
2019-01-29T13:27:32.573Z,94.42
2019-01-29T13:28:32.809Z,94.60
2019-01-29T13:29:32.928Z,94.89
2019-01-29T13:30:33.096Z,94.51
2019-01-29T13:31:33.240Z,93.94
2019-01-29T13:32:33.429Z,93.65
2019-01-29T13:33:33.572Z,94.60
2019-01-29T13:34:33.773Z,94.32
2019-01-29T13:35:33.949Z,94.13
2019-01-29T13:36:34.071Z,94.04
2019-01-29T13:37:34.244Z,93.94
2019-01-29T13:38:34.424Z,93.75
2019-01-29T13:39:34.584Z,93.37
2019-01-29T13:40:34.674Z,93.46
2019-01-29T13:41:34.820Z,93.84
2019-01-29T13:42:35.024Z,93.56
2019-01-29T13:43:35.154Z,93.56
2019-01-29T13:44:35.384Z,94.04
2019-01-29T13:45:35.478Z,93.94
2019-01-29T13:46:35.658Z,93.65
2019-01-29T13:47:35.742Z,94.04
2019-01-29T13:48:35.994Z,93.37
2019-01-29T13:49:36.128Z,93.27
2019-01-29T13:50:36.255Z,93.46
2019-01-29T13:51:36.371Z,93.75
2019-01-29T13:52:36.530Z,93.99
2019-01-29T13:53:36.725Z,93.61
2019-01-29T13:54:36.883Z,93.23
2019-01-29T13:55:36.993Z,93.04
2019-01-29T13:56:39.057Z,92.47
2019-01-29T13:57:37.349Z,92.47
2019-01-29T13:58:37.473Z,93.56
2019-01-29T13:59:37.708Z,92.14
2019-01-29T14:00:37.853Z,91.56
2019-01-29T14:01:38.025Z,92.14
2019-01-29T14:02:38.179Z,90.71
2019-01-29T14:03:38.300Z,90.71
2019-01-29T14:04:38.474Z,90.81
2019-01-29T14:05:38.663Z,91.75
2019-01-29T14:06:38.777Z,91.56
2019-01-29T14:07:39.019Z,91.00
2019-01-29T14:08:39.139Z,90.14
2019-01-29T14:09:39.343Z,90.71
2019-01-29T14:10:39.496Z,90.52
2019-01-29T14:11:39.609Z,90.24
2019-01-29T14:12:39.750Z,88.81
2019-01-29T14:13:39.958Z,88.81
2019-01-29T14:14:40.072Z,88.34
2019-01-29T14:15:40.207Z,87.77
2019-01-29T14:16:40.409Z,87.87
2019-01-29T14:17:40.532Z,87.68
2019-01-29T14:18:40.763Z,87.11
2019-01-29T14:19:40.918Z,87.68
2019-01-29T14:20:41.051Z,88.39
2019-01-29T14:21:41.210Z,87.62
2019-01-29T14:22:41.404Z,86.77
2019-01-29T14:23:41.520Z,86.68
2019-01-29T14:24:43.490Z,86.87
2019-01-29T14:25:41.848Z,85.11
2019-01-29T14:26:47.605Z,83.15
2019-01-29T14:27:42.248Z,81.38
2019-01-29T14:28:42.342Z,80.15
2019-01-29T14:29:42.533Z,80.34
2019-01-29T14:30:42.664Z,81.20
2019-01-29T14:31:42.790Z,83.53
2019-01-29T14:32:42.927Z,81.06
2019-01-29T14:33:43.201Z,80.21
2019-01-29T14:34:43.317Z,81.87
2019-01-29T14:35:43.497Z,83.68
2019-01-29T14:36:43.601Z,84.01
2019-01-29T14:37:43.777Z,85.25
2019-01-29T14:38:43.982Z,85.72
2019-01-29T14:39:44.079Z,85.87
2019-01-29T14:40:44.271Z,86.91
2019-01-29T14:41:44.385Z,86.63
2019-01-29T14:42:46.305Z,86.63
2019-01-29T14:43:44.761Z,87.20
2019-01-29T14:44:44.898Z,87.20
2019-01-29T14:45:45.135Z,87.11
2019-01-29T14:46:45.288Z,88.15
2019-01-29T14:47:45.440Z,88.24
2019-01-29T14:48:45.621Z,88.72
2019-01-29T14:49:45.707Z,89.10
2019-01-29T14:50:45.906Z,88.76
2019-01-29T14:51:46.069Z,87.15
2019-01-29T14:52:47.099Z,84.63
2019-01-29T14:53:46.409Z,82.64
2019-01-29T14:54:46.499Z,80.96
2019-01-29T14:55:46.636Z,80.40
2019-01-29T14:56:46.880Z,79.73
2019-01-29T14:57:47.031Z,79.92
2019-01-29T14:58:47.149Z,78.72
2019-01-29T14:59:47.326Z,77.77
2019-01-29T15:00:47.486Z,76.73
2019-01-29T15:01:47.642Z,75.49
2019-01-29T15:02:47.788Z,74.82
2019-01-29T15:03:48.026Z,75.21
2019-01-29T15:04:48.120Z,76.21
2019-01-29T15:05:48.270Z,77.17
2019-01-29T15:06:48.466Z,79.79
2019-01-29T15:07:48.645Z,80.64
2019-01-29T15:08:48.744Z,81.30
2019-01-29T15:09:48.929Z,81.45
2019-01-29T15:10:49.094Z,83.16
2019-01-29T15:11:49.213Z,84.78
2019-01-29T15:12:49.396Z,85.11
2019-01-29T15:13:49.550Z,85.87
2019-01-29T15:14:49.707Z,86.25
2019-01-29T15:15:49.941Z,85.87
2019-01-29T15:16:50.023Z,85.11
2019-01-29T15:17:50.222Z,85.21
2019-01-29T15:18:50.372Z,85.87
2019-01-29T15:19:50.468Z,86.44
2019-01-29T15:20:50.690Z,86.91
2019-01-29T15:21:51.334Z,86.63
2019-01-29T15:22:51.035Z,87.30
2019-01-29T15:23:51.171Z,88.29
2019-01-29T15:24:51.324Z,89.20
2019-01-29T15:25:51.488Z,89.43
2019-01-29T15:26:51.647Z,89.06
2019-01-29T15:27:51.778Z,89.06
2019-01-29T15:28:52.031Z,89.15
2019-01-29T15:29:52.154Z,88.68
2019-01-29T15:30:52.276Z,88.87
2019-01-29T15:31:52.461Z,89.11
2019-01-29T15:32:52.573Z,89.34
2019-01-29T15:33:52.753Z,90.38
2019-01-29T15:34:52.902Z,90.86
2019-01-29T15:35:53.077Z,90.81
2019-01-29T15:36:53.244Z,91.00
2019-01-29T15:37:54.615Z,91.47
2019-01-29T15:38:53.652Z,91.19
2019-01-29T15:39:53.797Z,90.62
2019-01-29T15:40:54.001Z,91.47
2019-01-29T15:41:54.187Z,91.66
2019-01-29T15:42:56.048Z,91.38
2019-01-29T15:43:54.432Z,91.00
2019-01-29T15:44:54.589Z,91.19
2019-01-29T15:45:54.719Z,91.66
2019-01-29T15:46:54.923Z,91.14
2019-01-29T15:47:55.054Z,90.91
2019-01-29T15:48:55.193Z,91.05
2019-01-29T15:49:55.379Z,91.24
2019-01-29T15:50:55.560Z,91.62
2019-01-29T15:51:55.667Z,91.24
2019-01-29T15:52:55.835Z,91.71
2019-01-29T15:53:56.045Z,92.09
2019-01-29T15:54:56.230Z,92.09
2019-01-29T15:55:56.339Z,92.47
2019-01-29T15:56:56.479Z,91.62
2019-01-29T15:57:56.641Z,91.90
2019-01-29T15:58:56.785Z,91.71
2019-01-29T15:59:56.968Z,91.62
2019-01-29T16:00:57.128Z,92.00
2019-01-29T16:01:57.311Z,92.00
2019-01-29T16:02:57.389Z,92.00
2019-01-29T16:03:57.618Z,92.57
2019-01-29T16:04:57.750Z,92.66
2019-01-29T16:05:57.902Z,92.47
2019-01-29T16:06:58.094Z,92.85
2019-01-29T16:07:58.312Z,92.76
2019-01-29T16:08:58.440Z,92.94
2019-01-29T16:09:58.584Z,92.76
2019-01-29T16:10:58.798Z,92.85
2019-01-29T16:11:58.877Z,92.85
2019-01-29T16:12:59.017Z,92.85
2019-01-29T16:13:59.229Z,92.76
2019-01-29T16:14:59.358Z,92.85
2019-01-29T16:15:59.564Z,92.28
2019-01-29T16:16:59.702Z,92.85
2019-01-29T16:17:59.869Z,92.76
2019-01-29T16:18:59.986Z,92.76
2019-01-29T16:20:00.280Z,92.85
2019-01-29T16:21:00.310Z,92.85
2019-01-29T16:22:00.474Z,92.76
2019-01-29T16:23:00.659Z,92.66
2019-01-29T16:24:00.777Z,92.66
2019-01-29T16:25:00.925Z,92.47
2019-01-29T16:26:01.041Z,92.38
2019-01-29T16:27:06.727Z,92.47
2019-01-29T16:28:01.385Z,92.47
2019-01-29T16:29:01.526Z,93.51
2019-01-29T16:30:01.780Z,93.89
2019-01-29T16:31:01.887Z,93.99
2019-01-29T16:32:02.094Z,93.04
2019-01-29T16:33:02.209Z,93.32
2019-01-29T16:34:02.404Z,93.32
2019-01-29T16:35:02.591Z,93.42
2019-01-29T16:36:02.751Z,92.85
2019-01-29T16:37:02.925Z,92.76
2019-01-29T16:38:03.041Z,92.85
2019-01-29T16:39:03.195Z,92.94
2019-01-29T16:40:03.301Z,92.94
2019-01-29T16:41:03.531Z,93.99
2019-01-29T16:42:03.639Z,93.89
2019-01-29T16:43:03.872Z,93.70
2019-01-29T16:44:04.017Z,93.89
2019-01-29T16:45:04.189Z,93.04
2019-01-29T16:46:04.335Z,92.57
2019-01-29T16:47:04.466Z,92.66
2019-01-29T16:48:04.579Z,92.94
2019-01-29T16:49:04.788Z,92.47
2019-01-29T16:50:04.955Z,92.94
2019-01-29T16:51:05.107Z,93.32
2019-01-29T16:52:05.293Z,93.89
2019-01-29T16:53:05.481Z,93.70
2019-01-29T16:54:05.594Z,93.99
2019-01-29T16:55:05.703Z,93.32